createdAt,value
2019-01-20T00:00:54.775Z,99.90
2019-01-20T00:02:01.140Z,99.90
2019-01-20T00:03:07.399Z,99.90
2019-01-20T00:04:13.366Z,99.90
2019-01-20T00:05:19.497Z,99.90
2019-01-20T00:06:25.474Z,99.90
2019-01-20T00:07:32.259Z,99.90
2019-01-20T00:08:38.218Z,99.90
2019-01-20T00:09:44.059Z,99.90
2019-01-20T00:10:49.952Z,99.90
2019-01-20T00:11:55.908Z,99.90
2019-01-20T00:13:01.719Z,99.90
2019-01-20T00:14:07.871Z,99.90
2019-01-20T00:15:16.614Z,99.90
2019-01-20T00:16:22.458Z,99.90
2019-01-20T00:17:28.368Z,99.90
2019-01-20T00:18:34.282Z,99.90
2019-01-20T00:19:40.033Z,99.90
2019-01-20T00:20:45.947Z,99.90
2019-01-20T00:21:51.622Z,99.90
2019-01-20T00:22:57.547Z,99.90
2019-01-20T00:24:03.474Z,99.90
2019-01-20T00:25:09.863Z,99.90
2019-01-20T00:26:15.865Z,99.90
2019-01-20T00:27:21.708Z,99.90
2019-01-20T00:28:27.624Z,99.90
2019-01-20T00:29:33.518Z,99.90
2019-01-20T00:30:39.504Z,99.90
2019-01-20T00:31:45.359Z,99.90
2019-01-20T00:32:51.268Z,99.90
2019-01-20T00:33:57.037Z,99.90
2019-01-20T00:35:02.915Z,99.90
2019-01-20T00:36:10.334Z,99.90
2019-01-20T00:37:16.283Z,99.90
2019-01-20T00:38:22.204Z,99.90
2019-01-20T00:39:28.076Z,99.90
2019-01-20T00:40:33.954Z,99.90
2019-01-20T00:41:40.015Z,99.90
2019-01-20T00:42:46.207Z,99.90
2019-01-20T00:43:52.052Z,99.90
2019-01-20T00:45:02.557Z,99.90
2019-01-20T00:46:05.673Z,99.90
2019-01-20T00:47:11.663Z,99.90
2019-01-20T00:48:17.557Z,99.90
2019-01-20T00:49:23.463Z,99.90
2019-01-20T00:50:29.376Z,99.90
2019-01-20T00:51:35.297Z,99.90
2019-01-20T00:52:41.127Z,99.90
2019-01-20T00:53:47.033Z,99.90
2019-01-20T00:54:53.043Z,99.90
2019-01-20T00:55:58.934Z,99.90
2019-01-20T00:57:05.604Z,99.90
2019-01-20T00:58:11.407Z,99.90
2019-01-20T00:59:17.262Z,99.90
2019-01-20T01:00:25.883Z,99.90
2019-01-20T01:01:32.311Z,99.90
2019-01-20T01:02:38.297Z,99.90
2019-01-20T01:03:44.207Z,99.90
2019-01-20T01:04:50.121Z,99.90
2019-01-20T01:05:55.927Z,99.90
2019-01-20T01:07:02.996Z,99.90
2019-01-20T01:08:09.575Z,99.90
2019-01-20T01:09:15.489Z,99.90
2019-01-20T01:10:21.899Z,99.90
2019-01-20T01:11:31.717Z,99.90
2019-01-20T01:12:35.987Z,99.90
2019-01-20T01:13:41.801Z,99.90
2019-01-20T01:14:48.152Z,99.90
2019-01-20T01:15:54.139Z,99.90
2019-01-20T01:17:00.027Z,99.90
2019-01-20T01:18:06.073Z,99.90
2019-01-20T01:19:12.040Z,99.90
2019-01-20T01:20:18.721Z,99.90
2019-01-20T01:21:24.669Z,99.90
2019-01-20T01:22:30.656Z,99.90
2019-01-20T01:23:36.530Z,99.90
2019-01-20T01:24:42.654Z,99.80
2019-01-20T01:25:48.540Z,99.80
2019-01-20T01:26:55.349Z,99.80
2019-01-20T01:28:01.198Z,99.90
2019-01-20T01:29:07.102Z,99.90
2019-01-20T01:30:16.282Z,99.90
2019-01-20T01:31:22.101Z,99.90
2019-01-20T01:32:27.978Z,99.90
2019-01-20T01:33:33.906Z,99.90
2019-01-20T01:34:59.123Z,99.90
2019-01-20T01:36:05.093Z,99.90
2019-01-20T01:37:11.018Z,99.90
2019-01-20T01:38:16.836Z,99.90
2019-01-20T01:39:22.803Z,99.90
2019-01-20T01:40:31.787Z,99.90
2019-01-20T01:41:39.122Z,99.90
2019-01-20T01:42:45.364Z,99.90
2019-01-20T01:43:51.230Z,99.90
2019-01-20T01:44:57.232Z,99.90
2019-01-20T01:46:03.199Z,99.90
2019-01-20T01:47:09.040Z,99.90
2019-01-20T01:48:14.861Z,99.90
2019-01-20T01:49:20.682Z,99.90
2019-01-20T01:50:26.535Z,99.90
2019-01-20T01:51:32.352Z,99.90
2019-01-20T01:52:39.327Z,99.90
2019-01-20T01:53:45.342Z,99.90
2019-01-20T01:54:51.281Z,99.90
2019-01-20T01:55:57.273Z,99.90
2019-01-20T01:57:03.259Z,99.90
2019-01-20T01:58:09.094Z,99.90
2019-01-20T01:59:14.956Z,99.90
2019-01-20T02:00:24.544Z,99.90
2019-01-20T02:01:30.439Z,99.90
2019-01-20T02:02:36.292Z,99.90
2019-01-20T02:03:42.271Z,99.90
2019-01-20T02:04:48.998Z,99.90
2019-01-20T02:05:54.810Z,99.90
2019-01-20T02:07:00.627Z,99.90
2019-01-20T02:08:06.498Z,99.90
2019-01-20T02:09:12.344Z,99.90
2019-01-20T02:10:20.219Z,99.90
2019-01-20T02:11:26.032Z,99.90
2019-01-20T02:12:31.926Z,99.90
2019-01-20T02:13:37.693Z,99.90
2019-01-20T02:14:43.737Z,99.90
2019-01-20T02:15:49.624Z,99.90
2019-01-20T02:16:55.569Z,99.90
2019-01-20T02:18:01.428Z,99.90
2019-01-20T02:19:07.251Z,99.90
2019-01-20T02:20:15.960Z,99.90
2019-01-20T02:21:21.875Z,99.90
2019-01-20T02:22:27.875Z,99.90
2019-01-20T02:23:33.706Z,99.90
2019-01-20T02:24:39.549Z,99.90
2019-01-20T02:25:45.380Z,99.90
2019-01-20T02:26:51.368Z,99.90
2019-01-20T02:27:58.684Z,99.90
2019-01-20T02:29:04.950Z,99.90
2019-01-20T02:30:15.620Z,99.90
2019-01-20T02:31:24.514Z,99.90
2019-01-20T02:32:31.167Z,99.90
2019-01-20T02:33:37.044Z,99.90
2019-01-20T02:34:42.947Z,99.90
2019-01-20T02:35:49.891Z,99.90
2019-01-20T02:36:55.734Z,99.90
2019-01-20T02:38:02.215Z,99.90
2019-01-20T02:39:08.753Z,99.90
2019-01-20T02:40:15.443Z,99.90
2019-01-20T02:41:21.403Z,99.90
2019-01-20T02:42:27.231Z,99.90
2019-01-20T02:43:33.078Z,99.90
2019-01-20T02:44:38.894Z,99.90
2019-01-20T02:45:44.749Z,99.90
2019-01-20T02:46:50.643Z,99.90
2019-01-20T02:47:56.500Z,99.90
2019-01-20T02:49:02.323Z,99.90
2019-01-20T02:50:09.722Z,99.90
2019-01-20T02:51:15.544Z,99.90
2019-01-20T02:52:21.447Z,99.90
2019-01-20T02:53:27.315Z,99.90
2019-01-20T02:54:33.149Z,99.90
2019-01-20T02:55:38.967Z,99.90
2019-01-20T02:56:45.052Z,99.90
2019-01-20T02:57:50.906Z,99.90
2019-01-20T02:58:58.747Z,99.90
2019-01-20T03:00:06.624Z,99.90
2019-01-20T03:01:12.388Z,99.90
2019-01-20T03:02:18.176Z,99.90
2019-01-20T03:03:23.944Z,99.90
2019-01-20T03:04:29.786Z,99.90
2019-01-20T03:05:36.267Z,99.90
2019-01-20T03:06:42.105Z,99.90
2019-01-20T03:07:47.898Z,99.90
2019-01-20T03:08:53.806Z,99.90
2019-01-20T03:09:59.690Z,99.90
2019-01-20T03:11:05.542Z,99.90
2019-01-20T03:12:11.263Z,99.90
2019-01-20T03:13:17.028Z,99.90
2019-01-20T03:14:22.824Z,99.90
2019-01-20T03:15:29.382Z,99.90
2019-01-20T03:16:35.222Z,99.90
2019-01-20T03:17:41.000Z,99.90
2019-01-20T03:18:47.870Z,99.90
2019-01-20T03:19:53.654Z,99.90
2019-01-20T03:20:59.524Z,99.90
2019-01-20T03:22:05.611Z,99.90
2019-01-20T03:23:11.472Z,99.90
2019-01-20T03:24:17.391Z,99.90
2019-01-20T03:25:23.343Z,99.90
2019-01-20T03:26:29.301Z,99.90
2019-01-20T03:27:35.143Z,99.90
2019-01-20T03:28:40.991Z,99.90
2019-01-20T03:29:47.268Z,99.90
2019-01-20T03:30:53.077Z,99.90
2019-01-20T03:31:59.045Z,99.90
2019-01-20T03:33:04.999Z,99.90
2019-01-20T03:34:10.835Z,99.90
2019-01-20T03:35:19.049Z,99.90
2019-01-20T03:36:26.083Z,99.90
2019-01-20T03:37:31.951Z,99.90
2019-01-20T03:38:37.739Z,99.90
2019-01-20T03:39:43.627Z,99.90
2019-01-20T03:40:49.519Z,99.90
2019-01-20T03:41:55.370Z,99.90
2019-01-20T03:43:01.381Z,99.90
2019-01-20T03:44:07.303Z,99.90
2019-01-20T03:45:22.882Z,99.90
2019-01-20T03:46:28.807Z,99.90
2019-01-20T03:47:34.610Z,99.90
2019-01-20T03:48:40.542Z,99.90
2019-01-20T03:49:46.397Z,99.90
2019-01-20T03:50:52.265Z,99.90
2019-01-20T03:51:58.138Z,99.90
2019-01-20T03:53:04.004Z,99.90
2019-01-20T03:54:09.968Z,99.90
2019-01-20T03:55:17.486Z,99.90
2019-01-20T03:56:23.470Z,99.90
2019-01-20T03:57:29.447Z,99.90
2019-01-20T03:58:35.448Z,99.90
2019-01-20T03:59:41.685Z,99.90
2019-01-20T04:00:47.825Z,99.90
2019-01-20T04:01:57.232Z,99.90
2019-01-20T04:03:05.872Z,99.90
2019-01-20T04:04:12.613Z,99.90
2019-01-20T04:05:18.612Z,99.90
2019-01-20T04:06:24.559Z,99.90
2019-01-20T04:07:30.390Z,99.90
2019-01-20T04:08:36.252Z,99.90
2019-01-20T04:09:42.130Z,99.90
2019-01-20T04:10:50.383Z,99.90
2019-01-20T04:11:56.275Z,99.90
2019-01-20T04:13:02.142Z,99.90
2019-01-20T04:14:08.122Z,99.90
2019-01-20T04:15:14.902Z,99.90
2019-01-20T04:16:20.777Z,99.90
2019-01-20T04:17:26.656Z,99.90
2019-01-20T04:18:32.428Z,99.90
2019-01-20T04:19:38.266Z,99.90
2019-01-20T04:20:44.721Z,99.90
2019-01-20T04:21:50.777Z,99.90
2019-01-20T04:22:56.635Z,99.90
2019-01-20T04:24:02.480Z,99.90
2019-01-20T04:25:10.687Z,99.90
2019-01-20T04:26:16.943Z,99.90
2019-01-20T04:27:22.848Z,99.90
2019-01-20T04:28:28.688Z,99.90
2019-01-20T04:29:34.590Z,99.90
2019-01-20T04:30:40.427Z,99.90
2019-01-20T04:31:46.296Z,99.90
2019-01-20T04:32:52.269Z,99.90
2019-01-20T04:33:58.080Z,99.90
2019-01-20T04:35:05.406Z,99.90
2019-01-20T04:36:11.304Z,99.90
2019-01-20T04:37:29.867Z,99.90
2019-01-20T04:38:37.134Z,99.90
2019-01-20T04:39:43.143Z,99.90
2019-01-20T04:40:48.983Z,99.90
2019-01-20T04:41:54.813Z,99.90
2019-01-20T04:43:00.633Z,99.90
2019-01-20T04:44:06.561Z,99.90
2019-01-20T04:45:13.341Z,99.90
2019-01-20T04:46:19.201Z,99.90
2019-01-20T04:47:25.124Z,99.90
2019-01-20T04:48:31.005Z,99.90
2019-01-20T04:49:36.955Z,99.90
2019-01-20T04:50:42.828Z,99.90
2019-01-20T04:51:48.711Z,99.90
2019-01-20T04:52:54.685Z,99.90
2019-01-20T04:54:00.761Z,99.90
2019-01-20T04:55:08.096Z,99.90
2019-01-20T04:56:13.980Z,99.90
2019-01-20T04:57:21.404Z,99.90
2019-01-20T04:58:27.671Z,99.90
2019-01-20T04:59:33.523Z,99.90
2019-01-20T05:00:40.438Z,99.90
2019-01-20T05:01:46.326Z,99.90
2019-01-20T05:02:52.250Z,99.90
2019-01-20T05:03:58.105Z,99.90
2019-01-20T05:05:04.057Z,99.90
2019-01-20T05:06:09.991Z,99.90
2019-01-20T05:07:15.766Z,99.90
2019-01-20T05:08:21.809Z,99.90
2019-01-20T05:09:27.591Z,99.90
2019-01-20T05:10:33.416Z,99.90
2019-01-20T05:11:39.341Z,99.90
2019-01-20T05:12:45.361Z,99.90
2019-01-20T05:13:51.197Z,99.90
2019-01-20T05:14:57.037Z,99.90
2019-01-20T05:16:02.999Z,99.90
2019-01-20T05:17:08.963Z,99.90
2019-01-20T05:18:14.741Z,99.90
2019-01-20T05:19:20.647Z,99.90
2019-01-20T05:20:26.603Z,99.90
2019-01-20T05:21:32.475Z,99.90
2019-01-20T05:22:38.366Z,99.90
2019-01-20T05:23:44.302Z,99.90
2019-01-20T05:24:50.128Z,99.90
2019-01-20T05:25:56.002Z,99.90
2019-01-20T05:27:02.016Z,99.90
2019-01-20T05:28:07.967Z,99.90
2019-01-20T05:29:13.854Z,99.90
2019-01-20T05:30:21.830Z,99.90
2019-01-20T05:31:27.672Z,99.90
2019-01-20T05:32:33.443Z,99.90
2019-01-20T05:33:39.430Z,99.90
2019-01-20T05:34:46.329Z,99.90
2019-01-20T05:35:52.180Z,99.90
2019-01-20T05:36:58.038Z,99.90
2019-01-20T05:38:03.916Z,99.90
2019-01-20T05:39:09.992Z,99.90
2019-01-20T05:40:17.325Z,99.90
2019-01-20T05:41:23.416Z,99.90
2019-01-20T05:42:29.282Z,99.90
2019-01-20T05:43:35.113Z,99.90
2019-01-20T05:44:41.027Z,99.90
2019-01-20T05:45:47.020Z,99.90
2019-01-20T05:46:52.919Z,99.90
2019-01-20T05:47:58.802Z,99.90
2019-01-20T05:49:04.843Z,99.90
2019-01-20T05:50:12.576Z,99.90
2019-01-20T05:51:18.514Z,99.90
2019-01-20T05:52:24.476Z,99.90
2019-01-20T05:53:30.372Z,99.90
2019-01-20T05:54:36.292Z,99.90
2019-01-20T05:55:42.222Z,99.90
2019-01-20T05:56:48.034Z,99.90
2019-01-20T05:57:54.061Z,99.90
2019-01-20T05:59:00.007Z,99.90
2019-01-20T06:00:10.787Z,99.90
2019-01-20T06:01:17.721Z,99.90
2019-01-20T06:02:23.495Z,99.90
2019-01-20T06:03:29.762Z,99.90
2019-01-20T06:04:35.531Z,99.90
2019-01-20T06:05:41.482Z,99.90
2019-01-20T06:06:47.427Z,99.90
2019-01-20T06:07:53.529Z,99.90
2019-01-20T06:08:59.419Z,99.90
2019-01-20T06:10:06.782Z,99.90
2019-01-20T06:11:12.636Z,99.90
2019-01-20T06:12:19.435Z,99.90
2019-01-20T06:13:25.363Z,99.90
2019-01-20T06:14:31.336Z,99.90
2019-01-20T06:15:37.112Z,99.90
2019-01-20T06:16:43.062Z,99.90
2019-01-20T06:17:49.068Z,99.90
2019-01-20T06:18:55.956Z,99.90
2019-01-20T06:20:01.861Z,99.90
2019-01-20T06:21:07.671Z,99.90
2019-01-20T06:22:13.626Z,99.90
2019-01-20T06:23:19.625Z,99.90
2019-01-20T06:24:25.532Z,99.90
2019-01-20T06:25:31.490Z,99.90
2019-01-20T06:26:37.400Z,99.90
2019-01-20T06:27:43.376Z,99.90
2019-01-20T06:28:49.271Z,99.90
2019-01-20T06:29:55.016Z,99.90
2019-01-20T06:31:00.791Z,99.90
2019-01-20T06:32:08.806Z,99.90
2019-01-20T06:33:14.595Z,99.90
2019-01-20T06:34:20.441Z,99.90
2019-01-20T06:35:26.246Z,99.90
2019-01-20T06:36:32.003Z,99.90
2019-01-20T06:37:37.792Z,99.90
2019-01-20T06:38:43.720Z,99.90
2019-01-20T06:39:50.949Z,99.90
2019-01-20T06:40:56.983Z,99.90
2019-01-20T06:42:03.011Z,99.90
2019-01-20T06:43:08.893Z,99.90
2019-01-20T06:44:14.675Z,99.90
2019-01-20T06:45:20.723Z,99.90
2019-01-20T06:46:26.528Z,99.90
2019-01-20T06:47:32.356Z,99.90
2019-01-20T06:48:38.094Z,99.90
2019-01-20T06:49:43.966Z,99.90
2019-01-20T06:50:50.002Z,99.90
2019-01-20T06:51:55.880Z,99.90
2019-01-20T06:53:01.716Z,99.90
2019-01-20T06:54:08.643Z,99.90
2019-01-20T06:55:14.927Z,99.90
2019-01-20T06:56:20.783Z,99.90
2019-01-20T06:57:26.659Z,99.90
2019-01-20T06:58:32.589Z,99.90
2019-01-20T06:59:38.402Z,99.90
2019-01-20T07:00:44.342Z,99.90
2019-01-20T07:01:50.284Z,99.90
2019-01-20T07:02:56.251Z,99.90
2019-01-20T07:04:03.890Z,99.90
2019-01-20T07:05:10.061Z,99.90
2019-01-20T07:06:15.934Z,99.90
2019-01-20T07:07:21.834Z,99.90
2019-01-20T07:08:27.720Z,99.90
2019-01-20T07:09:33.615Z,99.90
2019-01-20T07:10:39.462Z,99.90
2019-01-20T07:11:45.377Z,99.90
2019-01-20T07:12:51.387Z,99.90
2019-01-20T07:13:57.309Z,99.90
2019-01-20T07:15:03.256Z,99.90
2019-01-20T07:16:09.265Z,99.90
2019-01-20T07:17:15.199Z,99.90
2019-01-20T07:18:21.084Z,99.90
2019-01-20T07:19:27.022Z,99.90
2019-01-20T07:20:32.914Z,99.90
2019-01-20T07:21:38.727Z,99.90
2019-01-20T07:22:44.763Z,99.90
2019-01-20T07:23:50.658Z,99.90
2019-01-20T07:24:56.616Z,99.90
2019-01-20T07:26:02.596Z,99.90
2019-01-20T07:27:08.511Z,99.90
2019-01-20T07:28:14.382Z,99.90
2019-01-20T07:29:20.377Z,99.90
2019-01-20T07:30:26.690Z,99.90
2019-01-20T07:31:46.237Z,99.90
2019-01-20T07:32:52.339Z,99.90
2019-01-20T07:33:58.161Z,99.90
2019-01-20T07:35:04.213Z,99.90
2019-01-20T07:36:10.146Z,99.90
2019-01-20T07:37:16.050Z,99.90
2019-01-20T07:38:21.868Z,99.90
2019-01-20T07:39:27.879Z,99.90
2019-01-20T07:40:34.681Z,99.90
2019-01-20T07:41:40.779Z,99.90
2019-01-20T07:42:46.729Z,99.90
2019-01-20T07:43:52.729Z,99.90
2019-01-20T07:45:17.613Z,99.90
2019-01-20T07:46:23.548Z,99.90
2019-01-20T07:47:29.735Z,99.90
2019-01-20T07:48:35.619Z,99.90
2019-01-20T07:49:41.470Z,99.90
2019-01-20T07:50:47.793Z,99.90
2019-01-20T07:51:53.978Z,99.90
2019-01-20T07:52:59.780Z,99.90
2019-01-20T07:54:05.856Z,99.90
2019-01-20T07:55:11.765Z,99.90
2019-01-20T07:56:17.643Z,99.90
2019-01-20T07:57:23.484Z,99.90
2019-01-20T07:58:29.380Z,99.90
2019-01-20T07:59:35.393Z,99.90
2019-01-20T08:00:41.241Z,99.90
2019-01-20T08:01:47.071Z,99.90
2019-01-20T08:02:52.890Z,99.80
2019-01-20T08:03:58.780Z,99.70
2019-01-20T08:08:07.684Z,99.20
2019-01-20T08:09:13.520Z,99.70
2019-01-20T08:10:21.791Z,99.80
2019-01-20T08:11:27.838Z,99.90
2019-01-20T08:12:33.667Z,99.60
2019-01-20T08:13:39.575Z,99.50
2019-01-20T08:14:45.562Z,99.70
2019-01-20T08:15:51.513Z,99.70
2019-01-20T08:16:57.407Z,99.50
2019-01-20T08:18:03.512Z,99.30
2019-01-20T08:19:09.604Z,99.20
2019-01-20T08:20:17.753Z,99.30
2019-01-20T08:21:23.689Z,99.30
2019-01-20T08:22:29.979Z,99.20
2019-01-20T08:23:36.091Z,99.00
2019-01-20T08:24:42.027Z,99.10
2019-01-20T08:25:50.802Z,99.00
2019-01-20T08:26:56.766Z,99.00
2019-01-20T08:28:02.664Z,99.10
2019-01-20T08:29:08.846Z,99.10
2019-01-20T08:30:19.923Z,99.00
2019-01-20T08:31:25.831Z,98.80
2019-01-20T08:32:31.741Z,98.40
2019-01-20T08:33:37.676Z,98.50
2019-01-20T08:34:44.716Z,98.20
2019-01-20T08:35:50.673Z,98.80
2019-01-20T08:36:56.585Z,98.80
2019-01-20T08:38:02.599Z,98.80
2019-01-20T08:39:09.557Z,98.90
2019-01-20T08:40:20.618Z,98.80
2019-01-20T08:41:26.684Z,98.80
2019-01-20T08:42:32.597Z,99.10
2019-01-20T08:43:39.556Z,99.10
2019-01-20T08:44:46.891Z,99.30
2019-01-20T08:46:09.635Z,99.50
2019-01-20T08:47:28.135Z,99.50
2019-01-20T08:48:34.481Z,99.50
2019-01-20T08:49:40.412Z,99.20
2019-01-20T08:50:46.425Z,98.20
2019-01-20T08:51:52.387Z,96.00
2019-01-20T08:52:58.285Z,93.80
2019-01-20T08:54:04.109Z,92.80
2019-01-20T08:55:10.968Z,93.00
2019-01-20T08:56:16.764Z,93.40
2019-01-20T08:57:22.766Z,94.20
2019-01-20T08:58:28.701Z,94.80
2019-01-20T08:59:34.578Z,95.90
2019-01-20T09:00:40.786Z,96.10
2019-01-20T09:01:46.617Z,96.50
2019-01-20T09:02:52.525Z,96.90
2019-01-20T09:03:58.478Z,97.40
2019-01-20T09:05:04.567Z,97.80
2019-01-20T09:06:10.514Z,97.90
2019-01-20T09:07:16.349Z,97.80
2019-01-20T09:08:22.267Z,98.10
2019-01-20T09:09:28.408Z,98.10
2019-01-20T09:10:34.570Z,98.10
2019-01-20T09:11:40.532Z,98.30
2019-01-20T09:12:46.532Z,98.60
2019-01-20T09:13:52.535Z,99.40
2019-01-20T09:14:58.371Z,99.40
2019-01-20T09:16:04.365Z,99.30
2019-01-20T09:17:10.420Z,99.20
2019-01-20T09:18:16.307Z,99.00
2019-01-20T09:19:23.174Z,99.00
2019-01-20T09:20:29.247Z,99.00
2019-01-20T09:21:35.229Z,99.20
2019-01-20T09:22:41.329Z,99.10
2019-01-20T09:23:48.262Z,99.20
2019-01-20T09:24:54.319Z,99.20
2019-01-20T09:26:00.287Z,99.10
2019-01-20T09:27:06.377Z,99.20
2019-01-20T09:28:12.203Z,99.40
2019-01-20T09:29:18.215Z,99.30
2019-01-20T09:30:24.235Z,99.20
2019-01-20T09:31:30.549Z,99.60
2019-01-20T09:32:36.555Z,99.30
2019-01-20T09:33:43.668Z,99.20
2019-01-20T09:34:50.439Z,99.10
2019-01-20T09:35:56.292Z,99.20
2019-01-20T09:37:02.210Z,99.20
2019-01-20T09:38:08.133Z,99.20
2019-01-20T09:39:15.284Z,99.30
2019-01-20T09:40:21.133Z,99.20
2019-01-20T09:41:27.082Z,98.90
2019-01-20T09:42:32.994Z,98.90
2019-01-20T09:43:38.903Z,98.90
2019-01-20T09:44:44.767Z,98.70
2019-01-20T09:45:51.340Z,98.70
2019-01-20T09:46:57.386Z,98.60
2019-01-20T09:48:03.443Z,98.50
2019-01-20T09:49:09.278Z,98.10
2019-01-20T09:50:15.344Z,98.00
2019-01-20T09:51:21.385Z,98.20
2019-01-20T09:52:27.441Z,98.20
2019-01-20T09:53:33.342Z,97.90
2019-01-20T09:54:39.610Z,98.00
2019-01-20T09:55:45.671Z,97.90
2019-01-20T09:56:51.538Z,97.60
2019-01-20T09:57:57.546Z,97.60
2019-01-20T09:59:03.598Z,97.70
2019-01-20T10:00:12.828Z,97.60
2019-01-20T10:01:18.802Z,97.00
2019-01-20T10:02:24.659Z,95.90
2019-01-20T10:03:30.696Z,95.10
2019-01-20T10:04:36.592Z,94.80
2019-01-20T10:05:42.406Z,93.90
2019-01-20T10:06:48.685Z,92.50
2019-01-20T10:07:54.614Z,90.90
2019-01-20T10:09:00.482Z,88.40
2019-01-20T10:10:07.542Z,82.30
2019-01-20T10:11:13.498Z,77.40
2019-01-20T10:12:19.450Z,72.00
2019-01-20T10:13:25.364Z,69.10
2019-01-20T10:14:31.261Z,67.40
2019-01-20T10:15:37.211Z,66.60
2019-01-20T10:16:43.101Z,66.60
2019-01-20T10:17:49.042Z,68.60
2019-01-20T10:18:54.877Z,71.80
2019-01-20T10:20:00.853Z,73.70
2019-01-20T10:21:06.762Z,76.00
2019-01-20T10:22:12.663Z,76.40
2019-01-20T10:23:18.529Z,77.50
2019-01-20T10:24:24.453Z,79.00
2019-01-20T10:25:30.815Z,80.40
2019-01-20T10:26:38.012Z,82.70
2019-01-20T10:27:45.321Z,84.10
2019-01-20T10:28:51.269Z,87.10
2019-01-20T10:29:57.081Z,89.60
2019-01-20T10:31:02.992Z,90.40
2019-01-20T10:32:08.963Z,90.80
2019-01-20T10:33:14.948Z,91.60
2019-01-20T10:34:20.819Z,91.90
2019-01-20T10:35:57.853Z,92.20
2019-01-20T10:37:04.430Z,92.70
2019-01-20T10:38:10.998Z,92.90
2019-01-20T10:39:16.810Z,93.10
2019-01-20T10:40:22.829Z,93.20
2019-01-20T10:41:28.631Z,93.20
2019-01-20T10:42:34.603Z,93.50
2019-01-20T10:43:40.432Z,93.60
2019-01-20T10:44:46.463Z,93.70
2019-01-20T10:45:52.860Z,93.90
2019-01-20T10:46:58.984Z,93.50
2019-01-20T10:48:05.887Z,92.80
2019-01-20T10:49:11.812Z,92.40
2019-01-20T10:50:18.166Z,91.70
2019-01-20T10:51:24.078Z,90.40
2019-01-20T10:52:30.106Z,87.00
2019-01-20T10:53:36.338Z,83.60
2019-01-20T10:54:42.735Z,83.60
2019-01-20T10:55:48.662Z,85.20
2019-01-20T10:56:54.643Z,86.90
2019-01-20T10:58:00.545Z,87.40
2019-01-20T10:59:07.539Z,87.00
2019-01-20T11:00:17.943Z,86.60
2019-01-20T11:01:23.922Z,86.00
2019-01-20T11:02:29.886Z,87.10
2019-01-20T11:03:35.802Z,88.20
2019-01-20T11:04:41.792Z,89.40
2019-01-20T11:05:47.641Z,90.10
2019-01-20T11:06:53.578Z,90.70
2019-01-20T11:07:59.450Z,91.10
2019-01-20T11:09:06.953Z,91.70
2019-01-20T11:10:12.984Z,92.10
2019-01-20T11:11:18.982Z,92.20
2019-01-20T11:12:25.979Z,92.20
2019-01-20T11:13:32.028Z,92.10
2019-01-20T11:14:38.082Z,92.00
2019-01-20T11:15:43.989Z,92.20
2019-01-20T11:16:49.810Z,91.90
2019-01-20T11:17:55.616Z,91.60
2019-01-20T11:19:13.209Z,91.70
2019-01-20T11:20:19.603Z,91.80
2019-01-20T11:21:25.779Z,91.30
2019-01-20T11:22:31.973Z,90.80
2019-01-20T11:23:37.853Z,90.50
2019-01-20T11:24:43.892Z,90.70
2019-01-20T11:25:49.785Z,90.90
2019-01-20T11:26:56.855Z,91.30
2019-01-20T11:28:04.122Z,91.80
2019-01-20T11:29:10.180Z,92.30
2019-01-20T11:30:16.350Z,92.40
2019-01-20T11:31:22.213Z,92.70
2019-01-20T11:32:28.061Z,93.20
2019-01-20T11:33:33.949Z,93.40
2019-01-20T11:34:39.885Z,93.50
2019-01-20T11:35:45.961Z,93.40
2019-01-20T11:36:51.853Z,93.20
2019-01-20T11:37:59.221Z,92.90
2019-01-20T11:39:11.309Z,92.80
2019-01-20T11:40:17.325Z,92.60
2019-01-20T11:41:23.313Z,93.10
2019-01-20T11:42:29.694Z,93.30
2019-01-20T11:43:35.712Z,93.80
2019-01-20T11:44:41.542Z,93.50
2019-01-20T11:45:47.517Z,93.50
2019-01-20T11:46:53.500Z,93.40
2019-01-20T11:48:00.402Z,93.40
2019-01-20T11:49:06.184Z,93.30
2019-01-20T11:50:12.265Z,93.30
2019-01-20T11:51:18.121Z,93.10
2019-01-20T11:52:24.133Z,92.70
2019-01-20T11:53:30.013Z,92.90
2019-01-20T11:54:38.877Z,93.10
2019-01-20T11:55:44.905Z,93.00
2019-01-20T11:56:50.790Z,92.80
2019-01-20T11:57:56.859Z,92.70
2019-01-20T11:59:02.935Z,93.10
2019-01-20T12:00:13.024Z,93.00
2019-01-20T12:01:18.847Z,92.70
2019-01-20T12:02:24.823Z,92.30
2019-01-20T12:03:30.794Z,92.30
2019-01-20T12:04:36.644Z,92.20
2019-01-20T12:05:44.880Z,92.30
2019-01-20T12:06:50.792Z,92.30
2019-01-20T12:07:56.989Z,92.10
2019-01-20T12:09:04.753Z,91.80
2019-01-20T12:10:10.966Z,91.60
2019-01-20T12:11:18.798Z,91.30
2019-01-20T12:12:25.362Z,91.10
2019-01-20T12:13:31.415Z,91.40
2019-01-20T12:14:37.331Z,91.80
2019-01-20T12:15:43.195Z,90.80
2019-01-20T12:16:49.098Z,89.10
2019-01-20T12:17:54.977Z,87.20
2019-01-20T12:19:01.144Z,84.60
2019-01-20T12:20:09.044Z,83.20
2019-01-20T12:21:14.924Z,81.60
2019-01-20T12:22:20.918Z,80.10
2019-01-20T12:23:26.945Z,78.00
2019-01-20T12:24:32.805Z,75.60
2019-01-20T12:26:26.619Z,71.90
2019-01-20T12:27:32.595Z,69.20
2019-01-20T12:28:38.513Z,66.90
2019-01-20T12:29:51.641Z,65.40
2019-01-20T12:30:52.029Z,64.70
2019-01-20T12:31:57.989Z,64.50
2019-01-20T12:33:05.735Z,64.20
2019-01-20T12:34:11.595Z,64.70
2019-01-20T12:35:17.677Z,65.50
2019-01-20T12:36:23.730Z,67.10
2019-01-20T12:37:40.526Z,68.30
2019-01-20T12:38:47.248Z,69.50
2019-01-20T12:39:53.147Z,70.80
2019-01-20T12:40:59.065Z,71.20
2019-01-20T12:42:05.042Z,71.80
2019-01-20T12:43:14.544Z,73.30
2019-01-20T12:44:21.922Z,75.30
2019-01-20T12:45:28.005Z,77.50
2019-01-20T12:46:34.229Z,79.70
2019-01-20T12:47:40.284Z,81.10
2019-01-20T12:48:46.202Z,82.70
2019-01-20T12:49:52.093Z,84.00
2019-01-20T12:50:57.964Z,85.80
2019-01-20T12:52:04.330Z,85.80
2019-01-20T12:53:10.275Z,86.10
2019-01-20T12:54:16.241Z,86.40
2019-01-20T12:55:22.457Z,87.00
2019-01-20T12:56:28.552Z,88.40
2019-01-20T12:57:34.798Z,89.80
2019-01-20T12:58:40.685Z,89.90
2019-01-20T12:59:46.856Z,90.00
2019-01-20T13:00:52.776Z,90.60
2019-01-20T13:01:58.812Z,90.80
2019-01-20T13:03:05.149Z,90.80
2019-01-20T13:04:11.059Z,90.80
2019-01-20T13:05:17.128Z,90.90
2019-01-20T13:06:22.965Z,91.00
2019-01-20T13:07:28.803Z,91.00
2019-01-20T13:08:35.038Z,90.90
2019-01-20T13:09:41.289Z,90.90
2019-01-20T13:10:47.104Z,91.10
2019-01-20T13:11:52.953Z,91.10
2019-01-20T13:12:58.980Z,91.20
2019-01-20T13:14:05.268Z,91.30
2019-01-20T13:15:13.845Z,91.50
2019-01-20T13:16:19.853Z,91.60
2019-01-20T13:17:25.729Z,91.70
2019-01-20T13:18:32.774Z,91.70
2019-01-20T13:19:38.753Z,91.90
2019-01-20T13:20:45.179Z,92.00
2019-01-20T13:21:51.232Z,92.20
2019-01-20T13:22:57.178Z,92.20
2019-01-20T13:24:03.387Z,92.30
2019-01-20T13:25:11.292Z,92.30
2019-01-20T13:26:17.213Z,92.30
2019-01-20T13:27:23.089Z,92.50
2019-01-20T13:28:29.171Z,92.80
2019-01-20T13:29:35.052Z,92.80
2019-01-20T13:30:41.097Z,92.70
2019-01-20T13:31:46.975Z,92.80
2019-01-20T13:32:53.021Z,92.90
2019-01-20T13:33:59.135Z,93.10
2019-01-20T13:35:05.525Z,93.20
2019-01-20T13:36:11.392Z,93.20
2019-01-20T13:37:17.601Z,93.00
2019-01-20T13:38:24.820Z,92.90
2019-01-20T13:39:43.615Z,93.10
2019-01-20T13:40:56.801Z,92.90
2019-01-20T13:42:03.030Z,92.90
2019-01-20T13:43:09.039Z,93.00
2019-01-20T13:44:14.996Z,93.30
2019-01-20T13:45:21.026Z,93.30
2019-01-20T13:46:26.951Z,93.50
2019-01-20T13:47:32.866Z,93.50
2019-01-20T13:48:38.976Z,93.40
2019-01-20T13:49:44.921Z,93.40
2019-01-20T13:50:51.011Z,93.20
2019-01-20T13:51:57.157Z,93.00
2019-01-20T13:53:03.416Z,92.50
2019-01-20T13:54:09.487Z,92.70
2019-01-20T13:55:15.789Z,92.80
2019-01-20T13:56:21.874Z,92.90
2019-01-20T13:57:27.733Z,92.90
2019-01-20T13:58:33.905Z,92.80
2019-01-20T13:59:39.848Z,92.90
2019-01-20T14:00:46.135Z,93.10
2019-01-20T14:01:52.142Z,93.30
2019-01-20T14:02:58.154Z,93.50
2019-01-20T14:04:04.327Z,93.50
2019-01-20T14:05:10.465Z,93.40
2019-01-20T14:06:17.295Z,93.40
2019-01-20T14:07:23.419Z,93.50
2019-01-20T14:08:29.316Z,93.50
2019-01-20T14:09:35.215Z,93.60
2019-01-20T14:10:41.388Z,93.40
2019-01-20T14:11:47.236Z,93.40
2019-01-20T14:12:53.071Z,93.50
2019-01-20T14:13:59.036Z,93.70
2019-01-20T14:15:06.229Z,94.00
2019-01-20T14:16:12.155Z,94.20
2019-01-20T14:17:18.077Z,94.30
2019-01-20T14:18:23.934Z,94.40
2019-01-20T14:19:30.982Z,94.40